createdAt,value
2022-10-16T00:01:44.567Z,12.02
2022-10-16T00:04:11.461Z,13.30
2022-10-16T00:06:38.871Z,12.75
2022-10-16T00:09:07.081Z,12.25
2022-10-16T00:11:40.531Z,13.43
2022-10-16T00:14:15.622Z,11.85
2022-10-16T00:16:43.043Z,12.68
2022-10-16T00:19:13.425Z,12.88
2022-10-16T00:21:40.438Z,12.32
2022-10-16T00:24:10.719Z,12.10
2022-10-16T00:26:39.777Z,11.18
2022-10-16T00:29:09.012Z,12.18
2022-10-16T00:31:36.500Z,12.18
2022-10-16T00:34:03.961Z,11.85
2022-10-16T00:36:31.652Z,11.13
2022-10-16T00:41:29.929Z,10.60
2022-10-16T00:44:23.767Z,9.98
2022-10-16T00:46:52.061Z,9.60
2022-10-16T00:49:22.219Z,11.65
2022-10-16T00:51:54.650Z,9.45
2022-10-16T00:54:33.185Z,9.20
2022-10-16T00:57:06.408Z,9.73
2022-10-16T00:59:43.346Z,10.10
2022-10-16T01:02:16.223Z,8.55
2022-10-16T01:04:51.184Z,8.15
2022-10-16T01:07:57.075Z,8.98
2022-10-16T01:10:45.186Z,9.07
2022-10-16T01:13:28.823Z,9.70
2022-10-16T01:16:14.583Z,9.23
2022-10-16T01:19:16.097Z,8.65
2022-10-16T01:21:53.204Z,7.65
2022-10-16T01:24:45.606Z,8.18
2022-10-16T01:27:31.854Z,8.38
2022-10-16T01:30:35.473Z,8.05
2022-10-16T01:33:18.119Z,7.80
2022-10-16T01:35:55.054Z,8.25
2022-10-16T01:38:38.981Z,8.82
2022-10-16T01:41:32.914Z,9.05
2022-10-16T01:44:21.673Z,8.17
2022-10-16T01:46:54.746Z,8.23
2022-10-16T01:49:30.704Z,8.45
2022-10-16T01:52:06.317Z,7.90
2022-10-16T01:54:38.980Z,9.75
2022-10-16T01:57:10.201Z,8.57
2022-10-16T01:59:48.070Z,8.45
2022-10-16T02:02:22.239Z,8.63
2022-10-16T02:07:23.632Z,8.82
2022-10-16T02:09:50.522Z,8.98
2022-10-16T02:12:28.220Z,8.25
2022-10-16T02:14:55.373Z,9.43
2022-10-16T02:17:22.715Z,9.95
2022-10-16T02:19:55.829Z,10.85
2022-10-16T02:22:41.347Z,9.70
2022-10-16T02:25:42.781Z,9.85
2022-10-16T02:28:45.994Z,10.60
2022-10-16T02:31:23.949Z,10.18
2022-10-16T02:33:55.221Z,8.93
2022-10-16T02:36:23.364Z,9.88
2022-10-16T02:38:55.259Z,9.85
2022-10-16T02:41:24.734Z,9.80
2022-10-16T02:43:51.385Z,9.23
2022-10-16T02:46:19.880Z,10.70
2022-10-16T02:48:46.496Z,8.85
2022-10-16T02:51:13.230Z,8.52
2022-10-16T02:53:39.887Z,8.73
2022-10-16T02:56:07.226Z,8.60
2022-10-16T02:58:33.966Z,8.32
2022-10-16T03:01:00.696Z,8.68
2022-10-16T03:03:27.401Z,7.63
2022-10-16T03:05:54.117Z,7.38
2022-10-16T03:08:24.477Z,7.70
2022-10-16T03:10:52.635Z,7.88
2022-10-16T03:13:21.389Z,6.95
2022-10-16T03:15:48.772Z,6.85
2022-10-16T03:18:16.078Z,6.65
2022-10-16T03:20:44.695Z,6.75
2022-10-16T03:23:11.536Z,7.28
2022-10-16T03:25:38.731Z,6.10
2022-10-16T03:28:05.582Z,6.05
2022-10-16T03:30:32.631Z,6.15
2022-10-16T03:32:59.406Z,5.55
2022-10-16T03:35:26.317Z,5.30
2022-10-16T03:37:58.814Z,6.30
2022-10-16T03:40:25.504Z,5.90
2022-10-16T03:42:58.291Z,5.63
2022-10-16T03:45:26.536Z,6.15
2022-10-16T03:47:56.055Z,5.57
2022-10-16T03:50:22.927Z,5.65
2022-10-16T03:52:49.599Z,5.65
2022-10-16T03:55:16.229Z,5.25
2022-10-16T03:57:45.943Z,5.13
2022-10-16T04:00:14.142Z,5.22
2022-10-16T04:02:41.291Z,5.72
2022-10-16T04:05:08.755Z,5.10
2022-10-16T04:07:40.757Z,5.28
2022-10-16T04:10:08.160Z,4.45
2022-10-16T04:12:34.888Z,4.95
2022-10-16T04:15:05.079Z,4.88
2022-10-16T04:17:31.809Z,4.72
2022-10-16T04:19:58.374Z,4.32
2022-10-16T04:22:25.025Z,4.40
2022-10-16T04:24:53.206Z,4.93
2022-10-16T04:27:19.956Z,4.65
2022-10-16T04:29:46.694Z,4.60
2022-10-16T04:32:13.343Z,5.20
2022-10-16T04:34:41.096Z,4.82
2022-10-16T04:37:08.339Z,4.40
2022-10-16T04:39:35.200Z,4.53
2022-10-16T04:42:04.545Z,4.75
2022-10-16T04:44:31.207Z,3.92
2022-10-16T04:46:57.931Z,4.88
2022-10-16T04:49:24.737Z,3.90
2022-10-16T04:51:51.767Z,4.45
2022-10-16T04:54:18.759Z,5.32
2022-10-16T04:56:48.982Z,4.10
2022-10-16T04:59:16.235Z,4.13
2022-10-16T05:01:49.019Z,3.88
2022-10-16T05:04:18.303Z,4.20
2022-10-16T05:06:45.053Z,4.50
2022-10-16T05:09:23.872Z,3.55
2022-10-16T05:11:50.673Z,4.57
2022-10-16T05:14:20.411Z,3.78
2022-10-16T05:16:48.982Z,4.30
2022-10-16T05:19:26.795Z,4.72
2022-10-16T05:21:54.858Z,3.47
2022-10-16T05:24:21.504Z,4.90
2022-10-16T05:26:48.148Z,4.03
2022-10-16T05:29:15.549Z,3.90
2022-10-16T05:31:44.327Z,3.50
2022-10-16T05:34:11.178Z,4.55
2022-10-16T05:36:38.067Z,4.53
2022-10-16T05:39:04.712Z,3.60
2022-10-16T05:41:33.164Z,4.07
2022-10-16T05:44:00.087Z,4.32
2022-10-16T05:46:26.712Z,4.05
2022-10-16T05:48:56.532Z,3.70
2022-10-16T05:51:23.227Z,4.20
2022-10-16T05:53:50.016Z,3.83
2022-10-16T05:56:16.692Z,3.67
2022-10-16T05:58:45.223Z,3.55
2022-10-16T06:01:18.455Z,3.00
2022-10-16T06:03:46.045Z,2.90
2022-10-16T06:06:23.900Z,3.92
2022-10-16T06:08:53.138Z,3.58
2022-10-16T06:11:29.616Z,3.35
2022-10-16T06:14:07.772Z,3.42
2022-10-16T06:16:39.516Z,3.25
2022-10-16T06:19:08.839Z,3.35
2022-10-16T06:21:40.443Z,3.38
2022-10-16T06:24:11.161Z,4.15
2022-10-16T06:26:40.960Z,3.35
2022-10-16T06:29:10.481Z,3.28
2022-10-16T06:31:38.924Z,3.47
2022-10-16T06:34:10.113Z,3.10
2022-10-16T06:36:37.115Z,3.20
2022-10-16T06:39:05.660Z,3.00
2022-10-16T06:41:32.644Z,4.00
2022-10-16T06:43:59.430Z,2.80
2022-10-16T06:46:27.496Z,2.97
2022-10-16T06:48:54.858Z,3.83
2022-10-16T06:51:26.182Z,3.47
2022-10-16T06:54:05.279Z,3.22
2022-10-16T06:56:35.197Z,3.47
2022-10-16T06:59:03.784Z,3.90
2022-10-16T07:01:31.272Z,3.53
2022-10-16T07:04:00.843Z,3.20
2022-10-16T07:06:33.129Z,3.20
2022-10-16T07:09:06.624Z,3.15
2022-10-16T07:11:34.616Z,3.58
2022-10-16T07:14:01.470Z,3.38
2022-10-16T07:16:32.599Z,3.22
2022-10-16T07:19:02.946Z,3.42
2022-10-16T07:21:36.961Z,3.08
2022-10-16T07:24:11.958Z,2.72
2022-10-16T07:26:40.366Z,3.50
2022-10-16T07:29:22.104Z,3.10
2022-10-16T07:31:50.405Z,3.03
2022-10-16T07:34:22.570Z,3.75
2022-10-16T07:36:51.478Z,3.63
2022-10-16T07:39:21.425Z,4.00
2022-10-16T07:41:48.131Z,3.67
2022-10-16T07:44:16.714Z,3.03
2022-10-16T07:46:43.573Z,3.65
2022-10-16T07:49:10.315Z,2.70
2022-10-16T07:51:37.148Z,3.20
2022-10-16T07:54:14.496Z,2.88
2022-10-16T07:57:04.360Z,3.33
2022-10-16T07:59:33.608Z,3.78
2022-10-16T08:02:00.435Z,3.47
2022-10-16T08:04:27.094Z,3.75
2022-10-16T08:06:55.263Z,3.40
2022-10-16T08:09:22.058Z,2.80
2022-10-16T08:11:48.832Z,3.42
2022-10-16T08:14:15.473Z,3.05
2022-10-16T08:16:42.160Z,3.05
2022-10-16T08:19:09.058Z,2.90
2022-10-16T08:21:35.847Z,2.90
2022-10-16T08:24:21.022Z,2.97
2022-10-16T08:26:50.263Z,2.95
2022-10-16T08:29:16.947Z,2.90
2022-10-16T08:31:46.264Z,3.00
2022-10-16T08:34:13.258Z,3.65
2022-10-16T08:36:40.015Z,6.10
2022-10-16T08:39:06.692Z,4.03
2022-10-16T08:42:28.805Z,3.55
2022-10-16T08:45:45.682Z,3.42
2022-10-16T08:48:47.313Z,3.58
2022-10-16T08:51:31.974Z,3.17
2022-10-16T08:54:31.259Z,3.60
2022-10-16T08:57:21.385Z,3.35
2022-10-16T08:59:52.466Z,3.38
2022-10-16T09:02:38.439Z,4.05
2022-10-16T09:05:55.879Z,3.38
2022-10-16T09:09:16.456Z,4.07
2022-10-16T09:12:28.796Z,3.97
2022-10-16T09:16:02.413Z,3.58
2022-10-16T09:19:23.835Z,3.92
2022-10-16T09:21:51.965Z,3.28
2022-10-16T09:24:29.381Z,3.90
2022-10-16T09:27:00.951Z,3.40
2022-10-16T09:29:27.809Z,2.95
2022-10-16T09:32:10.023Z,3.50
2022-10-16T09:34:47.301Z,3.47
2022-10-16T09:37:20.401Z,3.30
2022-10-16T09:39:54.803Z,3.70
2022-10-16T09:42:32.590Z,3.05
2022-10-16T09:44:59.956Z,3.30
2022-10-16T09:47:32.757Z,2.60
2022-10-16T09:50:36.642Z,3.92
2022-10-16T09:53:19.704Z,3.85
2022-10-16T09:55:55.497Z,3.30
2022-10-16T09:58:26.019Z,3.60
2022-10-16T10:00:56.044Z,3.35
2022-10-16T10:03:45.982Z,3.90
2022-10-16T10:06:48.044Z,3.67
2022-10-16T10:09:32.456Z,4.07
2022-10-16T10:12:04.865Z,3.70
2022-10-16T10:14:48.661Z,3.25
2022-10-16T10:17:30.669Z,3.50
2022-10-16T10:20:28.413Z,3.17
2022-10-16T10:22:57.205Z,3.60
2022-10-16T10:25:45.865Z,3.78
2022-10-16T10:28:30.660Z,3.90
2022-10-16T10:31:36.289Z,3.55
2022-10-16T10:35:07.072Z,4.22
2022-10-16T10:38:10.435Z,4.05
2022-10-16T10:41:16.770Z,3.10
2022-10-16T10:44:10.622Z,3.58
2022-10-16T10:47:03.593Z,4.07
2022-10-16T10:49:33.147Z,2.83
2022-10-16T10:52:36.032Z,3.33
2022-10-16T10:55:29.387Z,3.13
2022-10-16T10:58:26.453Z,4.03
2022-10-16T11:01:14.096Z,2.80
2022-10-16T11:04:08.049Z,3.30
2022-10-16T11:09:19.340Z,3.42
2022-10-16T11:12:09.038Z,3.33
2022-10-16T11:15:06.526Z,3.13
2022-10-16T11:17:46.775Z,3.17
2022-10-16T11:20:26.290Z,2.45
2022-10-16T11:23:27.989Z,2.95
2022-10-16T11:26:03.289Z,2.80
2022-10-16T11:28:51.449Z,2.60
2022-10-16T11:32:07.916Z,2.70
2022-10-16T11:34:59.932Z,2.97
2022-10-16T11:37:48.260Z,3.35
2022-10-16T11:40:36.250Z,2.33
2022-10-16T11:43:26.038Z,3.17
2022-10-16T11:46:11.892Z,2.70
2022-10-16T11:48:55.028Z,3.20
2022-10-16T11:51:39.298Z,3.28
2022-10-16T11:54:42.669Z,2.65
2022-10-16T11:57:25.665Z,2.70
2022-10-16T12:00:06.514Z,2.85
2022-10-16T12:03:13.553Z,3.20
2022-10-16T12:06:33.455Z,3.10
2022-10-16T12:09:05.390Z,3.50
2022-10-16T12:11:40.226Z,3.15
2022-10-16T12:14:13.105Z,2.80
2022-10-16T12:16:59.348Z,2.50
2022-10-16T12:19:30.713Z,2.75
2022-10-16T12:22:03.158Z,3.10
2022-10-16T12:24:35.529Z,2.78
2022-10-16T12:27:04.744Z,2.72
2022-10-16T12:29:36.967Z,2.38
2022-10-16T12:32:46.845Z,2.20
2022-10-16T12:35:37.772Z,2.53
2022-10-16T12:38:53.026Z,2.40
2022-10-16T12:44:04.449Z,2.85
2022-10-16T12:46:31.127Z,2.90
2022-10-16T12:49:38.182Z,2.90
2022-10-16T12:52:37.816Z,2.83
2022-10-16T12:55:17.449Z,2.50
2022-10-16T12:58:53.063Z,2.75
2022-10-16T13:02:06.339Z,2.85
2022-10-16T13:05:52.005Z,3.08
2022-10-16T13:09:11.016Z,2.60
2022-10-16T13:12:09.526Z,3.15
2022-10-16T13:15:32.863Z,2.65
2022-10-16T13:19:06.561Z,2.38
2022-10-16T13:22:35.861Z,2.53
2022-10-16T13:26:09.824Z,3.22
2022-10-16T13:28:40.792Z,3.10
2022-10-16T13:31:53.232Z,2.80
2022-10-16T13:34:51.616Z,2.67
2022-10-16T13:37:26.645Z,2.25
2022-10-16T13:40:29.216Z,2.63
2022-10-16T13:43:03.840Z,2.67
2022-10-16T13:45:32.512Z,2.63
2022-10-16T13:48:13.509Z,2.75
2022-10-16T13:50:40.249Z,2.45
2022-10-16T13:53:27.963Z,2.60
2022-10-16T13:55:54.767Z,3.22
2022-10-16T13:58:24.167Z,2.30
2022-10-16T14:01:17.115Z,2.75
2022-10-16T14:03:53.905Z,2.40
2022-10-16T14:06:23.690Z,3.33
2022-10-16T14:09:11.229Z,2.13
2022-10-16T14:11:59.128Z,3.10
2022-10-16T14:23:51.837Z,3.47
2022-10-16T14:26:26.685Z,2.92
2022-10-16T14:29:19.894Z,2.65
2022-10-16T14:32:26.092Z,3.10
2022-10-16T14:34:56.503Z,2.90
2022-10-16T14:37:31.348Z,3.10
2022-10-16T14:39:58.589Z,2.90
2022-10-16T14:42:26.938Z,2.60
2022-10-16T14:44:57.993Z,2.80
2022-10-16T14:47:28.340Z,2.90
2022-10-16T14:50:01.429Z,2.78
2022-10-16T14:52:28.270Z,3.00
2022-10-16T14:54:57.484Z,3.30
2022-10-16T14:57:33.824Z,3.10
2022-10-16T15:00:01.084Z,2.60
2022-10-16T15:02:40.427Z,3.08
2022-10-16T15:05:23.292Z,3.38
2022-10-16T15:07:57.512Z,2.85
2022-10-16T15:10:32.740Z,2.88
2022-10-16T15:13:02.780Z,2.80
2022-10-16T15:15:43.216Z,3.13
2022-10-16T15:18:10.078Z,2.42
2022-10-16T15:20:40.150Z,3.22
2022-10-16T15:23:36.475Z,2.38
2022-10-16T15:26:09.464Z,3.10
2022-10-16T15:28:37.139Z,2.67
2022-10-16T15:31:06.568Z,2.95
2022-10-16T15:33:38.871Z,3.42
2022-10-16T15:36:08.116Z,3.20
2022-10-16T15:38:35.415Z,2.80
2022-10-16T15:41:02.366Z,2.53
2022-10-16T15:43:35.337Z,2.80
2022-10-16T15:46:12.763Z,4.10
2022-10-16T15:48:40.963Z,3.38
2022-10-16T15:51:10.880Z,3.40
2022-10-16T15:53:37.706Z,3.85
2022-10-16T15:56:08.250Z,4.30
2022-10-16T15:58:36.016Z,5.47
2022-10-16T16:01:05.087Z,4.57
2022-10-16T16:03:35.997Z,3.15
2022-10-16T16:06:24.710Z,3.75
2022-10-16T16:08:55.489Z,2.90
2022-10-16T16:11:26.830Z,4.13
2022-10-16T16:13:55.633Z,4.03
2022-10-16T16:16:25.942Z,2.85
2022-10-16T16:32:27.700Z,3.88
2022-10-16T17:10:36.921Z,4.35
2022-10-16T17:26:51.720Z,4.25
2022-10-16T17:29:25.349Z,3.83
2022-10-16T17:31:55.171Z,4.68
2022-10-16T17:34:29.170Z,5.97
2022-10-16T17:36:55.861Z,4.35
2022-10-16T17:39:27.860Z,6.65
2022-10-16T17:41:55.729Z,5.93
2022-10-16T17:44:22.562Z,4.72
2022-10-16T17:46:56.331Z,5.18
2022-10-16T17:51:54.018Z,6.32
2022-10-16T17:54:21.650Z,5.07
2022-10-16T17:56:51.510Z,5.00
2022-10-16T17:59:41.446Z,4.85
2022-10-16T18:04:53.280Z,4.90
2022-10-16T18:07:20.129Z,3.78
2022-10-16T18:10:10.804Z,4.63
2022-10-16T19:23:11.690Z,4.05
2022-10-16T20:47:18.733Z,5.68
2022-10-16T20:52:34.163Z,4.87
2022-10-16T20:55:02.282Z,5.75
2022-10-16T20:57:29.398Z,6.43
2022-10-16T20:59:56.512Z,5.55
2022-10-16T21:02:27.295Z,4.63
2022-10-16T21:04:56.380Z,4.70
2022-10-16T21:07:23.083Z,3.92
2022-10-16T21:09:49.971Z,5.68
2022-10-16T21:12:16.592Z,4.82
2022-10-16T21:15:02.483Z,5.57
2022-10-16T21:17:32.403Z,5.55
2022-10-16T21:19:59.052Z,5.28
2022-10-16T21:22:31.721Z,5.65
2022-10-16T21:24:58.381Z,4.75
2022-10-16T21:27:25.402Z,5.50
2022-10-16T21:29:56.857Z,6.10
2022-10-16T21:32:23.653Z,5.57
2022-10-16T21:34:50.404Z,4.65
2022-10-16T21:37:17.061Z,5.85
2022-10-16T21:39:43.843Z,4.55
2022-10-16T21:42:10.575Z,5.88
2022-10-16T21:44:38.826Z,5.53
2022-10-16T21:47:05.671Z,7.57
2022-10-16T21:49:32.391Z,5.70
2022-10-16T21:51:59.074Z,6.28
2022-10-16T21:54:31.840Z,5.40
2022-10-16T21:56:58.637Z,6.00
2022-10-16T21:59:25.429Z,5.30
2022-10-16T22:01:55.647Z,7.85
2022-10-16T22:04:25.065Z,6.68
2022-10-16T22:06:51.802Z,5.93
2022-10-16T22:09:18.502Z,4.88
2022-10-16T22:11:50.266Z,5.93
2022-10-16T22:14:21.815Z,4.90
2022-10-16T22:16:50.292Z,5.38
2022-10-16T22:19:25.178Z,5.15
2022-10-16T22:21:57.192Z,5.88
2022-10-16T22:24:24.844Z,6.88
2022-10-16T22:26:51.623Z,4.93
2022-10-16T22:29:18.743Z,5.18
2022-10-16T22:31:53.232Z,6.22
2022-10-16T22:34:23.626Z,6.70
2022-10-16T22:36:53.144Z,5.15
2022-10-16T22:39:19.825Z,5.10
2022-10-16T22:41:46.579Z,5.75
2022-10-16T22:44:13.950Z,6.47
2022-10-16T22:46:45.953Z,5.25
2022-10-16T22:49:17.452Z,4.38
2022-10-16T22:51:44.678Z,4.82
2022-10-16T22:54:13.661Z,4.75
2022-10-16T22:56:40.678Z,4.72
2022-10-16T22:59:09.862Z,5.95
2022-10-16T23:01:43.968Z,5.35
2022-10-16T23:04:10.602Z,4.15
2022-10-16T23:06:39.880Z,4.57
2022-10-16T23:09:06.968Z,5.70
2022-10-16T23:11:33.816Z,5.28
2022-10-16T23:14:00.662Z,4.78
2022-10-16T23:16:27.410Z,5.28
2022-10-16T23:18:59.003Z,5.97
2022-10-16T23:21:30.290Z,4.93
2022-10-16T23:23:57.046Z,5.80
2022-10-16T23:26:27.211Z,4.55
2022-10-16T23:28:58.454Z,6.10
2022-10-16T23:31:26.697Z,5.45
2022-10-16T23:33:59.776Z,5.90
2022-10-16T23:36:28.830Z,5.05
2022-10-16T23:38:56.017Z,5.68
2022-10-16T23:41:23.015Z,5.25
2022-10-16T23:43:51.357Z,4.95
2022-10-16T23:46:18.545Z,4.50
2022-10-16T23:48:45.644Z,5.50
2022-10-16T23:51:16.196Z,5.45
2022-10-16T23:53:44.093Z,5.30
2022-10-16T23:56:14.678Z,3.78
2022-10-16T23:58:42.287Z,4.00
